Vanceburg, Kentucky
Current Conditions -  °F | °C
As of 1:15 AM on Saturday 25 Oct 2014 (Local Time) from KFGX Reporting Station
Clear Clear  
Wind Chill: 46°   Ceiling: Unl
Heat Index: 48°   Visibility: 10mi
Dew Point: 40°   Wind: 5mph
Humidity: 75%   Direction: 220°SW
Pressure: 30.07"   Gusts: NA
Location:  38.6°N, 83.32°W
Report Text: KFGX 250515Z AUTO 22004KT 10SM CLR 09/05 A3007 RMK AO2 T00870045
Loading
Personal Weather Stations






























Interactive Weather Map
Tropical Storm Tracking
New forecast layout! Learn more

10-Day Weather Forecast

Advertisements
Track Severe Weather on mobile